createdAt,value
2023-02-15T00:00:09.133Z,84.41
2023-02-15T00:02:36.033Z,84.64
2023-02-15T00:05:03.155Z,84.75
2023-02-15T00:07:30.048Z,84.52
2023-02-15T00:09:56.975Z,84.75
2023-02-15T00:12:23.933Z,84.95
2023-02-15T00:14:50.849Z,85.25
2023-02-15T00:17:17.893Z,85.24
2023-02-15T00:19:44.845Z,85.63
2023-02-15T00:22:11.697Z,85.62
2023-02-15T00:24:38.695Z,85.50
2023-02-15T00:27:05.615Z,85.71
2023-02-15T00:29:32.662Z,85.84
2023-02-15T00:31:59.517Z,86.03
2023-02-15T00:34:28.313Z,85.90
2023-02-15T00:36:55.416Z,86.02
2023-02-15T00:39:22.500Z,85.96
2023-02-15T00:41:49.423Z,86.02
2023-02-15T00:44:16.646Z,86.29
2023-02-15T00:46:43.645Z,86.33
2023-02-15T00:49:11.629Z,86.48
2023-02-15T00:51:39.142Z,86.50
2023-02-15T00:54:06.616Z,86.72
2023-02-15T00:56:33.732Z,86.83
2023-02-15T00:59:00.696Z,86.83
2023-02-15T01:01:27.778Z,87.05
2023-02-15T01:03:54.763Z,87.09
2023-02-15T01:06:21.847Z,87.06
2023-02-15T01:08:49.044Z,87.37
2023-02-15T01:11:23.081Z,87.42
2023-02-15T01:13:56.916Z,87.23
2023-02-15T01:16:26.621Z,87.46
2023-02-15T01:18:55.510Z,87.70
2023-02-15T01:21:25.323Z,87.63
2023-02-15T01:23:52.486Z,87.59
2023-02-15T01:26:21.105Z,87.87
2023-02-15T01:28:48.296Z,87.81
2023-02-15T01:31:19.922Z,87.79
2023-02-15T01:33:48.176Z,88.10
2023-02-15T01:36:15.716Z,88.20
2023-02-15T01:38:42.812Z,88.23
2023-02-15T01:41:25.537Z,88.34
2023-02-15T01:44:02.158Z,88.18
2023-02-15T01:46:39.049Z,88.32
2023-02-15T01:49:16.541Z,88.29
2023-02-15T01:51:47.453Z,88.33
2023-02-15T01:54:30.977Z,88.17
2023-02-15T01:57:04.607Z,88.47
2023-02-15T01:59:34.862Z,88.51
2023-02-15T02:02:03.447Z,88.69
2023-02-15T02:04:43.027Z,88.74
2023-02-15T02:07:11.002Z,88.78
2023-02-15T02:09:38.370Z,88.65
2023-02-15T02:12:05.939Z,88.78
2023-02-15T02:14:33.034Z,88.99
2023-02-15T02:17:43.746Z,89.04
2023-02-15T02:20:54.905Z,89.08
2023-02-15T02:23:38.289Z,89.16
2023-02-15T02:26:47.543Z,89.22
2023-02-15T02:30:10.947Z,89.28
2023-02-15T02:32:54.860Z,89.07
2023-02-15T02:35:48.207Z,89.40
2023-02-15T02:38:39.789Z,89.43
2023-02-15T02:41:24.055Z,89.24
2023-02-15T02:44:05.380Z,89.59
2023-02-15T02:47:19.787Z,89.72
2023-02-15T02:49:46.663Z,89.87
2023-02-15T02:52:43.662Z,89.75
2023-02-15T02:55:22.242Z,89.70
2023-02-15T02:58:17.578Z,89.83
2023-02-15T03:00:57.746Z,90.03
2023-02-15T03:03:44.087Z,89.90
2023-02-15T03:06:19.095Z,90.25
2023-02-15T03:08:58.215Z,90.26
2023-02-15T03:11:25.350Z,90.20
2023-02-15T03:13:52.521Z,90.26
2023-02-15T03:16:26.860Z,90.34
2023-02-15T03:19:04.255Z,90.54
2023-02-15T03:21:58.375Z,90.62
2023-02-15T03:24:34.608Z,90.72
2023-02-15T03:27:08.660Z,90.73
2023-02-15T03:29:36.939Z,90.82
2023-02-15T03:32:08.544Z,90.68
2023-02-15T03:34:35.683Z,90.74
2023-02-15T03:37:16.871Z,90.76
2023-02-15T03:39:53.871Z,90.92
2023-02-15T03:42:35.009Z,90.73
2023-02-15T03:45:17.087Z,90.92
2023-02-15T03:47:48.276Z,91.04
2023-02-15T03:50:38.676Z,90.93
2023-02-15T03:53:10.930Z,90.84
2023-02-15T03:55:38.148Z,91.03
2023-02-15T03:58:23.777Z,91.01
2023-02-15T04:01:25.255Z,90.98
2023-02-15T04:04:07.392Z,91.09
2023-02-15T04:06:34.444Z,91.09
2023-02-15T04:09:19.929Z,91.23
2023-02-15T04:11:46.858Z,91.00
2023-02-15T04:14:32.145Z,91.07
2023-02-15T04:16:59.009Z,91.23
2023-02-15T04:19:44.555Z,91.25
2023-02-15T04:22:30.026Z,91.13
2023-02-15T04:25:15.107Z,91.44
2023-02-15T04:27:49.342Z,91.46
2023-02-15T04:30:19.296Z,91.20
2023-02-15T04:32:46.692Z,91.55
2023-02-15T04:35:14.737Z,91.45
2023-02-15T04:37:42.968Z,91.59
2023-02-15T04:40:14.625Z,91.82
2023-02-15T04:42:41.669Z,91.64
2023-02-15T04:45:08.843Z,92.13
2023-02-15T04:47:35.955Z,91.95
2023-02-15T04:50:03.733Z,91.85
2023-02-15T04:52:30.673Z,92.06
2023-02-15T04:54:57.579Z,92.36
2023-02-15T04:57:24.453Z,92.50
2023-02-15T04:59:51.360Z,92.37
2023-02-15T05:02:18.339Z,92.47
2023-02-15T05:04:45.427Z,92.48
2023-02-15T05:07:12.383Z,92.70
2023-02-15T05:09:39.275Z,92.82
2023-02-15T05:12:06.491Z,92.97
2023-02-15T05:14:33.357Z,93.03
2023-02-15T05:17:02.456Z,92.57
2023-02-15T05:19:29.343Z,92.59
2023-02-15T05:21:56.647Z,92.63
2023-02-15T05:24:41.986Z,92.79
2023-02-15T05:27:32.803Z,92.92
2023-02-15T05:29:59.836Z,92.77
2023-02-15T05:32:27.198Z,93.04
2023-02-15T05:34:54.156Z,93.04
2023-02-15T05:37:21.048Z,93.34
2023-02-15T05:39:47.958Z,93.44
2023-02-15T05:42:14.860Z,93.27
2023-02-15T05:44:41.844Z,93.41
2023-02-15T05:47:08.753Z,93.58
2023-02-15T05:49:35.746Z,93.49
2023-02-15T05:52:03.938Z,93.66
2023-02-15T05:54:30.981Z,93.46
2023-02-15T05:56:58.088Z,93.69
2023-02-15T05:59:25.001Z,93.83
2023-02-15T06:01:51.976Z,94.14
2023-02-15T06:04:19.001Z,93.88
2023-02-15T06:06:45.954Z,94.06
2023-02-15T06:09:14.171Z,93.75
2023-02-15T06:11:41.437Z,93.61
2023-02-15T06:14:08.276Z,93.93
2023-02-15T06:16:35.267Z,93.93
2023-02-15T06:19:02.865Z,93.78
2023-02-15T06:21:31.397Z,93.94
2023-02-15T06:23:58.621Z,94.59
2023-02-15T06:26:25.651Z,93.96
2023-02-15T06:28:52.560Z,94.53
2023-02-15T06:31:19.539Z,93.97
2023-02-15T06:33:46.577Z,94.31
2023-02-15T06:36:13.583Z,94.33
2023-02-15T06:38:40.566Z,94.32
2023-02-15T06:41:07.593Z,94.16
2023-02-15T06:43:35.171Z,94.32
2023-02-15T06:46:02.457Z,94.12
2023-02-15T06:48:29.589Z,93.94
2023-02-15T06:50:56.591Z,94.07
2023-02-15T06:53:23.497Z,94.31
2023-02-15T06:55:50.460Z,94.51
2023-02-15T06:58:17.355Z,94.14
2023-02-15T07:00:44.283Z,94.55
2023-02-15T07:03:14.211Z,94.28
2023-02-15T07:05:41.105Z,94.46
2023-02-15T07:08:08.065Z,94.38
2023-02-15T07:10:34.950Z,94.51
2023-02-15T07:13:01.836Z,94.39
2023-02-15T07:15:28.837Z,94.13
2023-02-15T07:17:55.735Z,93.95
2023-02-15T07:20:24.412Z,94.54
2023-02-15T07:22:51.524Z,94.21
2023-02-15T07:25:19.230Z,94.12
2023-02-15T07:27:46.373Z,94.14
2023-02-15T07:30:17.394Z,94.01
2023-02-15T07:33:05.263Z,94.37
2023-02-15T07:35:33.583Z,94.20
2023-02-15T07:38:01.181Z,94.46
2023-02-15T07:40:28.253Z,94.47
2023-02-15T07:42:59.934Z,94.34
2023-02-15T07:45:26.992Z,94.19
2023-02-15T07:47:53.927Z,94.59
2023-02-15T07:50:20.836Z,94.38
2023-02-15T07:52:47.840Z,94.56
2023-02-15T07:55:14.972Z,94.26
2023-02-15T07:57:47.103Z,94.07
2023-02-15T08:00:16.464Z,93.85
2023-02-15T08:02:43.950Z,93.92
2023-02-15T08:05:10.997Z,93.98
2023-02-15T08:07:37.945Z,93.84
2023-02-15T08:10:05.594Z,94.08
2023-02-15T08:12:32.566Z,94.01
2023-02-15T08:14:59.598Z,93.82
2023-02-15T08:17:26.727Z,93.79
2023-02-15T08:19:53.656Z,93.81
2023-02-15T08:22:20.647Z,93.75
2023-02-15T08:24:47.875Z,93.92
2023-02-15T08:27:14.767Z,93.69
2023-02-15T08:29:43.070Z,93.58
2023-02-15T08:32:13.176Z,93.67
2023-02-15T08:34:42.851Z,93.25
2023-02-15T08:37:10.379Z,93.29
2023-02-15T08:39:37.737Z,93.37
2023-02-15T08:42:04.924Z,92.96
2023-02-15T08:44:31.950Z,93.11
2023-02-15T08:47:04.483Z,92.97
2023-02-15T08:49:31.931Z,92.66
2023-02-15T08:51:59.007Z,92.58
2023-02-15T08:54:26.027Z,92.64
2023-02-15T08:56:53.208Z,92.43
2023-02-15T08:59:23.551Z,92.40
2023-02-15T09:01:52.859Z,92.39
2023-02-15T09:04:21.072Z,92.10
2023-02-15T09:06:50.738Z,91.94
2023-02-15T09:09:19.520Z,91.68
2023-02-15T09:11:53.041Z,91.31
2023-02-15T09:14:24.413Z,91.32
2023-02-15T09:16:53.916Z,90.82
2023-02-15T09:19:23.078Z,90.92
2023-02-15T09:21:50.245Z,90.54
2023-02-15T09:24:18.957Z,90.11
2023-02-15T09:26:48.769Z,89.89
2023-02-15T09:29:18.027Z,89.89
2023-02-15T09:31:50.950Z,89.36
2023-02-15T09:34:21.409Z,89.11
2023-02-15T09:36:49.553Z,88.78
2023-02-15T09:39:25.788Z,88.42
2023-02-15T09:42:28.919Z,87.96
2023-02-15T09:45:28.178Z,88.14
2023-02-15T09:48:16.747Z,88.12
2023-02-15T09:51:08.572Z,87.52
2023-02-15T09:54:06.578Z,87.21
2023-02-15T09:56:40.478Z,86.59
2023-02-15T09:59:34.317Z,86.79
2023-02-15T10:02:40.388Z,86.72
2023-02-15T10:05:45.343Z,86.30
2023-02-15T10:08:57.981Z,86.39
2023-02-15T10:12:09.391Z,85.59
2023-02-15T10:14:57.165Z,85.23
2023-02-15T10:18:00.050Z,84.95
2023-02-15T10:20:35.341Z,84.76
2023-02-15T10:23:52.245Z,84.44
2023-02-15T10:26:24.100Z,84.35
2023-02-15T10:28:52.340Z,83.94
2023-02-15T10:31:33.418Z,83.19
2023-02-15T10:34:21.631Z,82.90
2023-02-15T10:37:31.908Z,82.15
2023-02-15T10:40:26.445Z,81.93
2023-02-15T10:43:18.187Z,81.35
2023-02-15T10:46:15.810Z,80.70
2023-02-15T10:49:08.789Z,79.27
2023-02-15T10:52:31.820Z,79.19
2023-02-15T10:55:22.556Z,78.71
2023-02-15T10:58:40.136Z,78.44
2023-02-15T11:01:28.648Z,78.37
2023-02-15T11:04:23.258Z,78.47
2023-02-15T11:06:56.535Z,78.01
2023-02-15T11:09:34.015Z,78.11
2023-02-15T11:12:02.405Z,77.79
2023-02-15T11:14:49.293Z,78.20
2023-02-15T11:17:23.433Z,78.43
2023-02-15T11:20:05.939Z,77.83
2023-02-15T11:22:34.991Z,77.57
2023-02-15T11:25:05.829Z,77.28
2023-02-15T11:27:34.199Z,76.97
2023-02-15T11:30:14.811Z,77.46
2023-02-15T11:32:46.415Z,78.01
2023-02-15T11:35:13.369Z,77.85
2023-02-15T11:38:07.515Z,77.95
2023-02-15T11:40:50.958Z,78.58
2023-02-15T11:43:27.490Z,78.56
2023-02-15T11:45:55.531Z,79.07
2023-02-15T11:48:23.024Z,79.11
2023-02-15T11:50:50.065Z,79.02
2023-02-15T11:53:30.332Z,79.12
2023-02-15T11:55:57.527Z,79.28
2023-02-15T11:58:50.014Z,79.42
2023-02-15T12:01:24.358Z,79.40
2023-02-15T12:04:31.081Z,79.67
2023-02-15T12:07:27.010Z,79.65
2023-02-15T12:10:08.405Z,79.86
2023-02-15T12:12:37.166Z,79.32
2023-02-15T12:15:11.110Z,79.92
2023-02-15T12:17:55.580Z,79.55
2023-02-15T12:20:26.937Z,78.97
2023-02-15T12:23:04.923Z,79.22
2023-02-15T12:25:55.209Z,79.48
2023-02-15T12:28:35.749Z,79.00
2023-02-15T12:31:24.344Z,78.73
2023-02-15T12:33:55.152Z,79.08
2023-02-15T12:36:28.943Z,79.10
2023-02-15T12:39:13.961Z,78.87
2023-02-15T12:42:00.428Z,79.10
2023-02-15T12:44:34.878Z,78.68
2023-02-15T12:47:17.183Z,79.08
2023-02-15T12:49:48.380Z,79.00
2023-02-15T12:52:21.497Z,78.96
2023-02-15T12:55:05.976Z,78.87
2023-02-15T12:58:07.529Z,78.70
2023-02-15T13:00:55.325Z,78.88
2023-02-15T13:03:35.621Z,78.61
2023-02-15T13:06:28.842Z,78.60
2023-02-15T13:09:21.509Z,78.33
2023-02-15T13:13:15.192Z,78.03
2023-02-15T13:19:20.257Z,77.74
2023-02-15T13:22:02.688Z,77.82
2023-02-15T13:27:58.833Z,77.69
2023-02-15T13:31:26.053Z,77.18
2023-02-15T13:34:22.530Z,77.52
2023-02-15T13:37:32.200Z,77.28
2023-02-15T13:40:40.891Z,77.01
2023-02-15T13:43:51.943Z,76.95
2023-02-15T13:47:05.808Z,76.58
2023-02-15T13:50:28.259Z,76.59
2023-02-15T13:53:34.443Z,76.70
2023-02-15T13:57:29.517Z,76.25
2023-02-15T14:00:52.981Z,76.16
2023-02-15T14:08:10.749Z,75.95
2023-02-15T14:11:19.588Z,75.42
2023-02-15T14:14:48.361Z,75.43
2023-02-15T14:17:47.167Z,75.01
2023-02-15T14:20:57.583Z,75.00
2023-02-15T14:24:10.377Z,74.68
2023-02-15T14:26:50.050Z,74.62
2023-02-15T14:29:30.208Z,74.24
2023-02-15T14:32:06.010Z,74.34
2023-02-15T14:34:59.253Z,73.99
2023-02-15T14:37:51.688Z,73.62
2023-02-15T14:40:48.174Z,73.38
2023-02-15T14:43:28.974Z,73.25
2023-02-15T14:46:24.410Z,73.14
2023-02-15T14:48:56.234Z,73.13
2023-02-15T14:51:52.181Z,73.40
2023-02-15T14:54:21.845Z,73.43
2023-02-15T14:57:08.800Z,73.37
2023-02-15T14:59:58.147Z,73.34
2023-02-15T15:02:49.789Z,73.32
2023-02-15T15:05:52.204Z,73.24
2023-02-15T15:08:37.357Z,73.33
2023-02-15T15:11:42.631Z,73.48
2023-02-15T15:14:16.467Z,73.24
2023-02-15T15:16:52.240Z,73.16
2023-02-15T15:19:52.182Z,73.40
2023-02-15T15:22:23.345Z,73.36
2023-02-15T15:25:38.471Z,73.21
2023-02-15T15:28:07.579Z,73.42
2023-02-15T15:30:34.486Z,73.38
2023-02-15T15:33:39.049Z,73.19
2023-02-15T15:36:49.749Z,73.63
2023-02-15T15:40:30.607Z,73.56
2023-02-15T15:43:34.748Z,73.60
2023-02-15T15:46:40.499Z,73.92
2023-02-15T15:49:16.430Z,73.73
2023-02-15T15:51:45.597Z,74.06
2023-02-15T15:54:25.126Z,74.04
2023-02-15T15:57:05.012Z,74.12
2023-02-15T15:59:35.358Z,74.68
2023-02-15T16:02:08.773Z,74.79
2023-02-15T16:04:36.503Z,74.61
2023-02-15T16:07:19.497Z,74.99
2023-02-15T16:10:06.960Z,74.83
2023-02-15T16:12:37.032Z,74.94
2023-02-15T16:15:18.778Z,75.22
2023-02-15T16:17:51.000Z,75.88
2023-02-15T16:20:22.827Z,75.78
2023-02-15T16:23:14.666Z,75.82
2023-02-15T16:26:06.591Z,76.32
2023-02-15T16:28:33.566Z,76.17
2023-02-15T16:31:15.757Z,76.64
2023-02-15T16:33:45.705Z,76.59
2023-02-15T16:36:23.724Z,77.00
2023-02-15T16:38:50.515Z,77.37
2023-02-15T16:41:24.049Z,77.75
2023-02-15T16:43:53.121Z,77.42
2023-02-15T16:46:32.507Z,77.79
2023-02-15T16:49:05.901Z,77.74
2023-02-15T16:51:35.262Z,77.89
2023-02-15T16:54:09.224Z,78.44
2023-02-15T16:56:37.430Z,78.40
2023-02-15T16:59:04.540Z,78.78
2023-02-15T17:01:33.718Z,78.88
2023-02-15T17:04:35.459Z,79.09
2023-02-15T17:07:19.188Z,79.32
2023-02-15T17:09:57.637Z,79.66
2023-02-15T17:12:49.684Z,79.80
2023-02-15T17:15:36.010Z,80.34
2023-02-15T17:18:18.806Z,80.54
2023-02-15T17:20:47.841Z,80.26
2023-02-15T17:23:42.811Z,80.54
2023-02-15T17:26:25.491Z,80.74
2023-02-15T17:28:57.242Z,80.93
2023-02-15T17:31:32.217Z,81.09
2023-02-15T17:34:01.011Z,81.05
2023-02-15T17:36:30.759Z,81.58
2023-02-15T17:39:24.295Z,81.95
2023-02-15T17:41:53.888Z,81.49
2023-02-15T17:44:21.007Z,81.91
2023-02-15T17:46:47.916Z,81.62
2023-02-15T17:49:26.036Z,81.80
2023-02-15T17:51:53.125Z,81.78
2023-02-15T17:54:38.374Z,81.91
2023-02-15T17:57:14.266Z,81.75
2023-02-15T18:00:01.078Z,82.26
2023-02-15T18:02:53.885Z,81.57
2023-02-15T18:05:39.526Z,81.86
2023-02-15T18:08:34.483Z,81.63
2023-02-15T18:11:20.801Z,81.98
2023-02-15T18:13:48.525Z,82.04
2023-02-15T18:16:25.089Z,82.44
2023-02-15T18:18:53.534Z,82.23
2023-02-15T18:21:20.446Z,82.58
2023-02-15T18:23:47.373Z,83.01
2023-02-15T18:26:21.376Z,83.08
2023-02-15T18:28:49.234Z,82.96
2023-02-15T18:31:16.462Z,82.96
2023-02-15T18:33:49.394Z,83.33
2023-02-15T18:36:32.575Z,82.74
2023-02-15T18:39:04.764Z,83.11
2023-02-15T18:41:34.010Z,83.20
2023-02-15T18:44:00.925Z,83.35
2023-02-15T18:46:27.882Z,83.31
2023-02-15T18:48:54.815Z,83.53
2023-02-15T18:51:23.878Z,83.44
2023-02-15T18:53:53.683Z,84.01
2023-02-15T18:56:22.960Z,84.18
2023-02-15T18:58:49.950Z,84.21
2023-02-15T19:01:21.606Z,84.42
2023-02-15T19:03:51.120Z,84.54
2023-02-15T19:06:23.084Z,84.25
2023-02-15T19:08:52.357Z,84.64
2023-02-15T19:11:25.423Z,84.95
2023-02-15T19:13:53.403Z,84.56
2023-02-15T19:16:32.221Z,85.15
2023-02-15T19:19:00.031Z,84.92
2023-02-15T19:21:30.813Z,85.39
2023-02-15T19:24:06.195Z,85.57
2023-02-15T19:26:45.317Z,85.77
2023-02-15T19:29:16.216Z,85.33
2023-02-15T19:31:43.548Z,85.89
2023-02-15T19:34:16.794Z,85.67
2023-02-15T19:36:50.373Z,86.15
2023-02-15T19:39:37.339Z,86.33
2023-02-15T19:42:04.835Z,86.37
2023-02-15T19:44:31.812Z,86.40
2023-02-15T19:46:58.870Z,86.23
2023-02-15T19:49:25.800Z,86.33
2023-02-15T19:51:53.233Z,86.32
2023-02-15T19:54:28.674Z,86.46
2023-02-15T19:56:56.248Z,86.81
2023-02-15T19:59:32.951Z,86.97
2023-02-15T20:02:00.334Z,87.01
2023-02-15T20:04:27.592Z,87.10
2023-02-15T20:07:01.023Z,87.02
2023-02-15T20:09:40.782Z,87.05
2023-02-15T20:12:25.398Z,87.54
2023-02-15T20:14:53.310Z,87.55
2023-02-15T20:17:20.306Z,87.64
2023-02-15T20:19:47.199Z,87.52
2023-02-15T20:22:26.564Z,87.55
2023-02-15T20:24:57.206Z,87.78
2023-02-15T20:27:24.320Z,87.68
2023-02-15T20:29:51.529Z,87.95
2023-02-15T20:32:18.676Z,87.98
2023-02-15T20:34:45.669Z,88.10
2023-02-15T20:37:34.018Z,87.88
2023-02-15T20:40:01.132Z,88.12
2023-02-15T20:42:28.128Z,88.39
2023-02-15T20:44:55.174Z,88.56
2023-02-15T20:47:22.108Z,88.18
2023-02-15T20:49:49.052Z,88.57
2023-02-15T20:52:20.371Z,88.75
2023-02-15T20:54:47.390Z,88.34
2023-02-15T20:57:14.717Z,88.72
2023-02-15T20:59:42.909Z,88.71
2023-02-15T21:02:19.113Z,88.78
2023-02-15T21:04:46.526Z,88.58
2023-02-15T21:07:19.575Z,88.97
2023-02-15T21:09:47.061Z,88.58
2023-02-15T21:12:19.925Z,89.10
2023-02-15T21:14:47.037Z,89.39
2023-02-15T21:17:16.322Z,89.21
2023-02-15T21:19:43.973Z,89.39
2023-02-15T21:22:14.301Z,89.65
2023-02-15T21:24:50.343Z,89.12
2023-02-15T21:27:17.826Z,89.43
2023-02-15T21:29:44.695Z,89.49
2023-02-15T21:32:11.832Z,89.73
2023-02-15T21:34:39.950Z,89.56
2023-02-15T21:37:32.472Z,89.72
2023-02-15T21:39:59.443Z,89.82
2023-02-15T21:42:47.031Z,90.01
2023-02-15T21:45:37.416Z,90.17
2023-02-15T21:48:04.776Z,89.83
2023-02-15T21:50:50.700Z,89.98
2023-02-15T21:53:27.471Z,90.36
2023-02-15T21:55:57.166Z,90.36
2023-02-15T21:58:27.268Z,90.23
2023-02-15T22:00:56.237Z,90.30
2023-02-15T22:03:25.933Z,90.32
2023-02-15T22:05:53.109Z,90.83
2023-02-15T22:08:20.451Z,90.67
2023-02-15T22:10:48.271Z,91.00
2023-02-15T22:13:35.003Z,91.18
2023-02-15T22:16:03.226Z,91.14
2023-02-15T22:18:34.339Z,91.04
2023-02-15T22:21:02.964Z,91.80
2023-02-15T22:23:30.279Z,91.29
2023-02-15T22:26:05.911Z,91.19
2023-02-15T22:28:37.640Z,91.40
2023-02-15T22:31:09.447Z,91.60
2023-02-15T22:33:36.396Z,91.67
2023-02-15T22:36:03.630Z,91.72
2023-02-15T22:38:30.527Z,91.89
2023-02-15T22:41:03.962Z,92.00
2023-02-15T22:43:40.642Z,92.04
2023-02-15T22:46:17.816Z,91.92
2023-02-15T22:48:48.214Z,92.17
2023-02-15T22:51:18.814Z,92.18
2023-02-15T22:53:45.978Z,92.50
2023-02-15T22:56:50.444Z,92.56
2023-02-15T22:59:28.808Z,92.64
2023-02-15T23:01:57.444Z,92.78
2023-02-15T23:04:27.823Z,93.05
2023-02-15T23:06:58.228Z,92.61
2023-02-15T23:09:25.144Z,93.07
2023-02-15T23:11:53.045Z,92.97
2023-02-15T23:14:29.142Z,93.04
2023-02-15T23:16:56.064Z,92.94
2023-02-15T23:19:23.083Z,93.11
2023-02-15T23:21:50.344Z,92.93
2023-02-15T23:24:29.458Z,93.24
2023-02-15T23:27:19.997Z,93.19
2023-02-15T23:29:46.939Z,93.14
2023-02-15T23:32:14.874Z,93.46
2023-02-15T23:34:43.169Z,93.52
2023-02-15T23:37:14.600Z,93.68
2023-02-15T23:39:59.822Z,93.68
2023-02-15T23:42:30.250Z,93.49
2023-02-15T23:44:57.317Z,93.58
2023-02-15T23:47:49.270Z,93.85
2023-02-15T23:50:26.964Z,93.78
2023-02-15T23:52:55.329Z,93.68
2023-02-15T23:55:23.661Z,94.09
2023-02-15T23:57:50.672Z,93.92
